Time;durP1;ratioP1;P1;durP2;ratioP2;P2;SDS_P1;SDS_P2;PMS_P1;PMS_P2;Temp;Humidity;BMP_temperature;BMP_pressure;BME280_temperature;BME280_humidity;BME280_pressure;Samples;Min_cycle;Max_cycle;Signal;HPM_P1;HPM_P2
2022/05/18 00:00:48;;;;;;;2.55;2.35;;;;;14.70;94643.00;;;;7395814;19;20576;-76
2022/05/18 00:03:22;;;;;;;6.72;2.83;;;;;14.70;94652.00;;;;7394467;19;20140;-74
2022/05/18 00:06:00;;;;;;;5.32;2.40;;;;;14.60;94656.00;;;;7394187;19;20144;-75
2022/05/18 00:08:35;;;;;;;3.20;2.50;;;;;14.70;94658.00;;;;7395949;19;20141;-76
2022/05/18 00:11:17;;;;;;;4.57;2.40;;;;;14.60;94652.00;;;;7394185;19;20156;-76
2022/05/18 00:13:54;;;;;;;4.70;2.55;;;;;14.70;94647.00;;;;7393175;19;20120;-77
2022/05/18 00:16:35;;;;;;;3.88;2.40;;;;;14.80;94649.00;;;;7394922;19;20133;-77
2022/05/18 00:19:03;;;;;;;2.97;2.40;;;;;14.80;94651.00;;;;7393686;19;20132;-76
2022/05/18 00:21:37;;;;;;;3.55;2.58;;;;;15.20;94646.00;;;;7394125;19;20140;-75
2022/05/18 00:24:05;;;;;;;2.97;2.20;;;;;15.30;94640.00;;;;7395001;19;20228;-75
2022/05/18 00:26:33;;;;;;;4.15;2.40;;;;;15.60;94649.00;;;;7394938;19;20606;-77
2022/05/18 00:29:07;;;;;;;3.78;2.28;;;;;15.60;94646.00;;;;7395355;19;20134;-77
2022/05/18 00:31:34;;;;;;;10.27;2.47;;;;;15.60;94653.00;;;;7393503;19;20157;-76
2022/05/18 00:34:02;;;;;;;4.50;2.75;;;;;15.50;94649.00;;;;7391475;19;20504;-76
2022/05/18 00:36:36;;;;;;;2.33;2.10;;;;;15.30;94656.00;;;;7393829;19;20125;-78
2022/05/18 00:39:03;;;;;;;3.70;2.10;;;;;15.30;94655.00;;;;7393820;19;20476;-76
2022/05/18 00:41:31;;;;;;;5.63;2.60;;;;;15.30;94657.00;;;;7393113;19;20145;-75
2022/05/18 00:44:06;;;;;;;2.30;2.03;;;;;15.30;94655.00;;;;7390504;19;20161;-75
2022/05/18 00:46:34;;;;;;;7.03;2.60;;;;;15.30;94657.00;;;;7394110;19;20474;-76
2022/05/18 00:49:06;;;;;;;2.63;2.10;;;;;15.40;94651.00;;;;7393895;19;20592;-75
2022/05/18 00:51:53;;;;;;;6.20;2.78;;;;;15.40;94654.00;;;;7395403;19;20128;-75
2022/05/18 00:54:28;;;;;;;4.60;2.70;;;;;15.50;94648.00;;;;7391505;19;20607;-75
2022/05/18 00:57:10;;;;;;;3.40;2.40;;;;;15.50;94652.00;;;;7393076;19;20125;-76
2022/05/18 00:59:46;;;;;;;5.32;2.53;;;;;15.50;94648.00;;;;7393089;19;20480;-76
2022/05/18 01:02:22;;;;;;;3.92;2.42;;;;;15.50;94651.00;;;;7392864;19;20158;-79
2022/05/18 01:04:52;;;;;;;3.28;2.10;;;;;15.50;94650.00;;;;7395845;19;20141;-78
2022/05/18 01:07:36;;;;;;;3.15;2.60;;;;;15.50;94653.00;;;;7395447;19;20495;-78
2022/05/18 01:10:05;;;;;;;4.68;2.47;;;;;15.50;94657.00;;;;7394737;19;20162;-79
2022/05/18 01:12:39;;;;;;;7.45;2.55;;;;;15.50;94652.00;;;;7395054;19;20155;-78
2022/05/18 01:15:23;;;;;;;3.88;2.33;;;;;15.50;94654.00;;;;7391513;19;20492;-80
2022/05/18 01:17:59;;;;;;;5.43;2.78;;;;;15.50;94655.00;;;;7394410;19;20144;-79
2022/05/18 01:20:32;;;;;;;4.97;2.50;;;;;15.30;94655.00;;;;7394760;19;20459;-79
2022/05/18 01:23:24;;;;;;;2.83;2.28;;;;;15.30;94657.00;;;;7395516;19;20482;-80
2022/05/18 01:26:17;;;;;;;7.32;2.60;;;;;15.30;94662.00;;;;7393888;19;20583;-79
2022/05/18 01:28:58;;;;;;;3.83;2.60;;;;;15.10;94664.00;;;;7393071;19;20144;-79
2022/05/18 01:31:58;;;;;;;4.72;2.40;;;;;14.90;94665.00;;;;7394800;19;20579;-79
2022/05/18 01:34:35;;;;;;;4.55;2.60;;;;;14.80;94671.00;;;;7396019;19;20140;-80
2022/05/18 01:37:03;;;;;;;7.47;2.88;;;;;14.70;94674.00;;;;7392201;19;20600;-78
2022/05/18 01:39:40;;;;;;;5.85;2.60;;;;;14.70;94662.00;;;;7392802;19;20125;-78
2022/05/18 01:42:44;;;;;;;9.18;2.45;;;;;14.70;94666.00;;;;7396141;19;20129;-78
2022/05/18 01:45:12;;;;;;;4.43;2.45;;;;;14.90;94669.00;;;;7397019;19;20159;-78
2022/05/18 01:47:48;;;;;;;4.32;2.78;;;;;15.10;94660.00;;;;7402028;19;20595;-79
2022/05/18 01:50:23;;;;;;;3.83;2.53;;;;;15.10;94657.00;;;;7394652;19;20208;-78
2022/05/18 01:52:57;;;;;;;3.67;2.47;;;;;15.10;94656.00;;;;7395687;19;20117;-78
2022/05/18 01:55:24;;;;;;;3.45;2.42;;;;;15.20;94653.00;;;;7400374;19;20137;-77
2022/05/18 01:57:52;;;;;;;3.35;2.40;;;;;15.30;94662.00;;;;7397379;19;20133;-79
2022/05/18 02:00:27;;;;;;;5.13;2.78;;;;;15.30;94658.00;;;;7402949;19;20141;-79
2022/05/18 02:02:54;;;;;;;5.75;3.05;;;;;15.40;94656.00;;;;7406603;19;20134;-79
2022/05/18 02:05:22;;;;;;;4.13;2.40;;;;;15.50;94658.00;;;;7402121;19;20121;-78
2022/05/18 02:07:57;;;;;;;3.20;2.40;;;;;15.40;94654.00;;;;7398514;19;20161;-79
2022/05/18 02:10:25;;;;;;;4.35;2.70;;;;;15.40;94655.00;;;;7397824;19;20113;-77
2022/05/18 02:12:53;;;;;;;10.05;3.17;;;;;15.40;94654.00;;;;7396004;19;20494;-77
2022/05/18 02:15:40;;;;;;;3.78;2.65;;;;;15.60;94667.00;;;;7395957;19;20144;-80
2022/05/18 02:18:08;;;;;;;4.95;2.80;;;;;15.40;94665.00;;;;7392673;19;20142;-78
2022/05/18 02:20:42;;;;;;;3.78;3.03;;;;;15.20;94658.00;;;;7392043;19;20511;-80
2022/05/18 02:23:10;;;;;;;3.72;2.92;;;;;15.30;94669.00;;;;7393917;19;20128;-78
2022/05/18 02:25:37;;;;;;;5.97;3.42;;;;;15.40;94666.00;;;;7393140;19;20145;-79
2022/05/18 02:28:12;;;;;;;5.45;2.65;;;;;15.30;94670.00;;;;7394968;19;20144;-80
2022/05/18 02:30:39;;;;;;;4.60;2.95;;;;;15.40;94677.00;;;;7398093;19;20157;-80
2022/05/18 02:33:08;;;;;;;6.82;3.00;;;;;15.30;94668.00;;;;7391562;19;20656;-80
2022/05/18 02:35:43;;;;;;;5.68;2.90;;;;;15.30;94680.00;;;;7402540;19;20137;-80
2022/05/18 02:38:11;;;;;;;4.20;2.92;;;;;15.40;94684.00;;;;7395916;19;20192;-80
2022/05/18 02:40:38;;;;;;;3.40;2.80;;;;;15.50;94675.00;;;;7403387;19;20639;-79
2022/05/18 02:43:12;;;;;;;3.95;3.20;;;;;15.60;94671.00;;;;7400842;19;20654;-80
2022/05/18 02:45:39;;;;;;;5.68;3.17;;;;;15.30;94674.00;;;;7400601;19;20129;-80
2022/05/18 02:48:07;;;;;;;3.35;2.97;;;;;15.20;94669.00;;;;7408278;19;20157;-80
2022/05/18 02:50:44;;;;;;;8.30;3.30;;;;;15.30;94672.00;;;;7407693;19;20163;-80
2022/05/18 02:53:12;;;;;;;5.88;3.15;;;;;15.30;94670.00;;;;7403126;19;20135;-78
2022/05/18 02:58:34;;;;;;;7.20;3.67;;;;;15.20;94663.00;;;;7404504;19;20121;-80
2022/05/18 03:01:02;;;;;;;5.72;3.10;;;;;15.10;94666.00;;;;7403863;19;20141;-80
2022/05/18 03:03:34;;;;;;;7.28;3.60;;;;;15.30;94673.00;;;;7403540;19;20145;-80
2022/05/18 03:06:17;;;;;;;4.88;3.53;;;;;15.20;94670.00;;;;7398059;19;20658;-79
2022/05/18 03:08:45;;;;;;;4.93;3.25;;;;;15.00;94682.00;;;;7408013;19;20165;-79
2022/05/18 03:11:20;;;;;;;3.88;3.42;;;;;15.10;94682.00;;;;7418189;19;20140;-80
2022/05/18 03:13:48;;;;;;;5.38;3.35;;;;;15.00;94681.00;;;;7417761;19;20157;-80
2022/05/18 03:16:16;;;;;;;8.68;3.33;;;;;15.10;94689.00;;;;7418790;19;20135;-79
2022/05/18 03:18:50;;;;;;;5.80;3.45;;;;;15.00;94695.00;;;;7417086;19;20128;-79
2022/05/18 03:24:17;;;;;;;4.88;3.30;;;;;14.90;94698.00;;;;7413334;19;20135;-80
2022/05/18 03:26:45;;;;;;;6.03;3.47;;;;;14.90;94696.00;;;;7413707;19;20120;-80
2022/05/18 03:29:19;;;;;;;5.18;3.60;;;;;14.80;94696.00;;;;7414983;19;20129;-80
2022/05/18 03:31:48;;;;;;;5.28;3.55;;;;;14.90;94701.00;;;;7420234;19;20158;-80
2022/05/18 03:34:16;;;;;;;3.55;3.20;;;;;14.80;94696.00;;;;7411183;19;20129;-80
2022/05/18 03:36:50;;;;;;;4.30;3.33;;;;;14.80;94695.00;;;;7415970;19;20670;-79
2022/05/18 03:39:18;;;;;;;7.38;3.28;;;;;14.80;94699.00;;;;7413273;19;20133;-78
2022/05/18 03:41:46;;;;;;;4.97;3.13;;;;;15.00;94711.00;;;;7423973;19;20140;-81
2022/05/18 03:44:33;;;;;;;8.40;3.70;;;;;14.90;94715.00;;;;7405435;19;20215;-79
2022/05/18 03:47:01;;;;;;;6.43;3.50;;;;;15.00;94712.00;;;;7415300;19;20129;-80
2022/05/18 03:49:48;;;;;;;7.18;3.42;;;;;15.00;94710.00;;;;7408843;19;20206;-79
2022/05/18 03:52:23;;;;;;;7.10;3.35;;;;;14.90;94709.00;;;;7412799;19;20611;-79
2022/05/18 03:54:57;;;;;;;9.07;3.38;;;;;15.00;94709.00;;;;7413315;19;20117;-79
2022/05/18 03:57:37;;;;;;;5.68;3.60;;;;;15.00;94709.00;;;;7403220;19;20237;-80
2022/05/18 04:00:15;;;;;;;3.90;3.22;;;;;15.10;94706.00;;;;7418343;19;20141;-80
2022/05/18 04:05:22;;;;;;;4.28;3.20;;;;;15.10;94711.00;;;;7420568;19;20210;-79
2022/05/18 04:08:03;;;;;;;5.15;3.55;;;;;15.20;94707.00;;;;7406373;19;20184;-79
2022/05/18 04:10:41;;;;;;;5.13;3.53;;;;;15.30;94705.00;;;;7420345;19;20211;-79
2022/05/18 04:13:18;;;;;;;5.00;3.60;;;;;15.40;94703.00;;;;7421207;19;20140;-79
2022/05/18 04:19:36;;;;;;;6.32;3.28;;;;;15.70;94725.00;;;;7395109;19;20206;-79
2022/05/18 04:22:11;;;;;;;5.07;3.80;;;;;15.80;94716.00;;;;7420970;19;20147;-81
2022/05/18 04:24:47;;;;;;;5.78;3.50;;;;;15.80;94723.00;;;;7421592;19;20136;-80
2022/05/18 04:27:16;;;;;;;7.43;3.45;;;;;15.80;94722.00;;;;7422787;19;20125;-79
2022/05/18 04:32:46;;;;;;;4.47;3.20;;;;;15.90;94717.00;;;;7414280;19;20224;-80
2022/05/18 04:35:24;;;;;;;6.43;3.33;;;;;15.90;94725.00;;;;7411959;19;20220;-78
2022/05/18 04:42:06;;;;;;;5.63;3.42;;;;;16.20;94731.00;;;;7408054;19;20192;-78
2022/05/18 04:44:57;;;;;;;6.28;3.75;;;;;16.20;94732.00;;;;7405823;19;20191;-80
2022/05/18 04:47:32;;;;;;;5.22;3.13;;;;;16.30;94744.00;;;;7405013;19;20129;-82
2022/05/18 04:50:13;;;;;;;4.57;3.22;;;;;16.20;94745.00;;;;7408344;19;20133;-82
2022/05/18 04:52:41;;;;;;;6.30;3.15;;;;;16.40;94747.00;;;;7403076;19;20124;-79
2022/05/18 04:55:15;;;;;;;7.75;3.30;;;;;16.60;94749.00;;;;7410841;19;20137;-81
2022/05/18 04:57:43;;;;;;;5.25;3.00;;;;;16.50;94746.00;;;;7398739;19;20125;-81
2022/05/18 05:00:13;;;;;;;6.05;3.20;;;;;16.50;94752.00;;;;7394280;19;20137;-82
2022/05/18 05:02:48;;;;;;;10.25;4.03;;;;;16.60;94746.00;;;;7393984;19;20128;-83
2022/05/18 05:05:16;;;;;;;5.53;3.53;;;;;16.80;94748.00;;;;7393011;19;20181;-84
2022/05/18 05:07:43;;;;;;;4.80;3.30;;;;;16.80;94753.00;;;;7393353;19;20121;-83
2022/05/18 05:10:18;;;;;;;4.22;3.33;;;;;17.00;94756.00;;;;7393318;19;20137;-84
2022/05/18 05:12:45;;;;;;;6.82;3.42;;;;;17.00;94761.00;;;;7392412;19;20204;-83
2022/05/18 05:15:14;;;;;;;5.63;3.35;;;;;17.10;94755.00;;;;7392097;19;20628;-82
2022/05/18 05:17:49;;;;;;;5.10;3.40;;;;;17.30;94758.00;;;;7393140;19;20540;-85
2022/05/18 05:20:17;;;;;;;4.90;3.50;;;;;17.50;94758.00;;;;7392337;19;20608;-84
2022/05/18 05:22:45;;;;;;;4.47;3.40;;;;;17.50;94757.00;;;;7393889;19;20131;-83
2022/05/18 05:25:19;;;;;;;3.40;3.10;;;;;17.60;94766.00;;;;7392392;19;20139;-84
2022/05/18 05:27:47;;;;;;;6.47;3.70;;;;;17.70;94760.00;;;;7393469;19;20513;-81
2022/05/18 05:30:15;;;;;;;5.20;3.35;;;;;17.80;94751.00;;;;7390751;19;20603;-82
2022/05/18 05:32:49;;;;;;;5.50;3.03;;;;;17.80;94756.00;;;;7391986;19;20504;-87
2022/05/18 05:35:16;;;;;;;4.40;3.40;;;;;18.00;94762.00;;;;7390960;19;20168;-83
2022/05/18 05:37:44;;;;;;;3.97;3.08;;;;;18.00;94754.00;;;;7392565;19;20137;-83
2022/05/18 05:40:19;;;;;;;4.72;3.33;;;;;18.10;94767.00;;;;7391641;19;20620;-81
2022/05/18 05:42:47;;;;;;;4.18;3.30;;;;;18.10;94768.00;;;;7390958;19;20156;-85
2022/05/18 05:45:14;;;;;;;5.20;3.10;;;;;18.40;94771.00;;;;7390433;19;20531;-81
2022/05/18 05:47:50;;;;;;;7.85;3.50;;;;;18.30;94763.00;;;;7392385;19;20476;-82
2022/05/18 05:50:19;;;;;;;6.32;3.30;;;;;18.30;94766.00;;;;7391049;19;20545;-83
2022/05/18 05:52:46;;;;;;;4.07;3.20;;;;;18.30;94775.00;;;;7391890;19;20158;-84
2022/05/18 05:55:21;;;;;;;6.28;3.75;;;;;18.60;94764.00;;;;7391279;19;20136;-80
2022/05/18 05:57:51;;;;;;;8.25;3.85;;;;;18.70;94761.00;;;;7391514;19;20613;-83
2022/05/18 06:00:19;;;;;;;6.75;3.40;;;;;18.70;94767.00;;;;7390849;19;20153;-83
2022/05/18 06:02:53;;;;;;;5.28;3.42;;;;;18.90;94756.00;;;;7392108;19;20157;-80
2022/05/18 06:05:21;;;;;;;5.75;3.33;;;;;19.00;94763.00;;;;7392082;19;20153;-79
2022/05/18 06:07:49;;;;;;;5.22;3.30;;;;;18.90;94766.00;;;;7391596;19;20643;-79
2022/05/18 06:10:23;;;;;;;3.45;3.15;;;;;19.00;94760.00;;;;7391277;19;20137;-79
2022/05/18 06:12:50;;;;;;;5.25;2.83;;;;;19.00;94757.00;;;;7391805;19;20125;-79
2022/05/18 06:15:18;;;;;;;5.72;3.03;;;;;19.10;94765.00;;;;7391646;19;20479;-79
2022/05/18 06:17:52;;;;;;;3.60;3.05;;;;;19.30;94770.00;;;;7391710;19;20133;-80
2022/05/18 06:20:19;;;;;;;6.07;3.42;;;;;19.50;94768.00;;;;7391629;19;20151;-79
2022/05/18 06:22:47;;;;;;;7.65;3.45;;;;;19.70;94761.00;;;;7393244;19;20759;-80
2022/05/18 06:25:21;;;;;;;4.88;3.05;;;;;19.70;94774.00;;;;7391989;19;20125;-79
2022/05/18 06:27:49;;;;;;;3.42;3.05;;;;;19.90;94776.00;;;;7393250;19;20129;-81
2022/05/18 06:30:17;;;;;;;6.30;3.13;;;;;20.00;94771.00;;;;7391892;19;20146;-80
2022/05/18 06:32:51;;;;;;;3.83;2.92;;;;;20.00;94773.00;;;;7394005;19;20442;-81
2022/05/18 06:35:19;;;;;;;4.78;3.50;;;;;20.10;94778.00;;;;7390851;19;20162;-80
2022/05/18 06:37:50;;;;;;;4.28;2.90;;;;;20.40;94778.00;;;;7392048;19;20129;-79
2022/05/18 06:41:21;;;;;;;3.55;3.10;;;;;20.50;94779.00;;;;7392505;19;20137;-79
2022/05/18 06:43:12;;;;;;;11.27;2.90;;;;;20.70;94775.00;;;;7396206;19;20133;-78
2022/05/18 06:45:53;;;;;;;5.10;2.88;;;;;20.90;94779.00;;;;7396319;19;20648;-78
2022/05/18 06:48:20;;;;;;;3.47;2.88;;;;;20.90;94773.00;;;;7398593;19;20752;-79
2022/05/18 06:51:19;;;;;;;9.23;3.33;;;;;20.80;94772.00;;;;7398124;19;20599;-80
2022/05/18 06:53:51;;;;;;;3.65;2.85;;;;;21.20;94776.00;;;;7399158;19;20151;-79
2022/05/18 06:56:28;;;;;;;3.63;2.90;;;;;21.60;94771.00;;;;7398015;19;20140;-78
2022/05/18 06:58:57;;;;;;;4.10;2.70;;;;;21.80;94765.00;;;;7398601;19;20611;-79
2022/05/18 07:01:26;;;;;;;3.92;3.05;;;;;22.10;94771.00;;;;7396802;19;20141;-79
2022/05/18 07:04:02;;;;;;;4.18;3.13;;;;;22.60;94770.00;;;;7396921;19;20143;-79
2022/05/18 07:06:35;;;;;;;6.70;3.20;;;;;23.00;94764.00;;;;7397217;19;20158;-79
2022/05/18 07:09:21;;;;;;;4.22;3.20;;;;;22.90;94774.00;;;;7396887;19;20120;-77
2022/05/18 07:11:51;;;;;;;4.55;2.88;;;;;23.40;94772.00;;;;7397499;19;20827;-76
2022/05/18 07:14:28;;;;;;;3.00;2.70;;;;;23.10;94782.00;;;;7395814;19;20153;-77
2022/05/18 07:16:57;;;;;;;3.53;2.90;;;;;23.40;94778.00;;;;7396168;19;20476;-78
2022/05/18 07:19:25;;;;;;;7.63;3.00;;;;;23.10;94779.00;;;;7396700;19;20141;-80
2022/05/18 07:21:59;;;;;;;3.45;2.97;;;;;22.70;94784.00;;;;7399419;19;20457;-79
2022/05/18 07:24:27;;;;;;;10.60;3.20;;;;;22.70;94786.00;;;;7399636;19;20200;-79
2022/05/18 07:26:54;;;;;;;4.38;3.25;;;;;22.60;94786.00;;;;7397631;19;20149;-79
2022/05/18 07:29:28;;;;;;;6.13;3.05;;;;;22.60;94788.00;;;;7398023;19;20612;-77
2022/05/18 07:32:14;;;;;;;4.95;3.38;;;;;22.60;94788.00;;;;7397465;19;20129;-76
2022/05/18 07:34:48;;;;;;;4.85;3.30;;;;;22.40;94788.00;;;;7395598;19;20133;-79
2022/05/18 07:37:19;;;;;;;5.95;3.13;;;;;22.50;94789.00;;;;7398322;19;20583;-78
2022/05/18 07:39:46;;;;;;;5.57;3.45;;;;;22.50;94786.00;;;;7397756;19;20192;-77
2022/05/18 07:42:21;;;;;;;5.13;3.00;;;;;22.80;94794.00;;;;7398338;19;20610;-78
2022/05/18 07:44:55;;;;;;;7.57;3.15;;;;;22.90;94789.00;;;;7397776;19;20579;-79
2022/05/18 07:47:33;;;;;;;5.05;3.08;;;;;23.00;94785.00;;;;7397086;19;20591;-79
2022/05/18 07:50:01;;;;;;;5.28;3.22;;;;;23.00;94788.00;;;;7396533;19;20639;-79
2022/05/18 07:52:28;;;;;;;5.32;3.30;;;;;23.00;94787.00;;;;7401951;19;20192;-80
2022/05/18 07:55:02;;;;;;;4.72;2.92;;;;;23.20;94786.00;;;;7402415;19;20151;-80
2022/05/18 07:57:30;;;;;;;3.40;3.00;;;;;23.70;94783.00;;;;7398895;19;20133;-80
2022/05/18 07:59:59;;;;;;;4.25;2.75;;;;;23.70;94777.00;;;;7398345;19;20148;-79
2022/05/18 08:02:33;;;;;;;4.65;3.03;;;;;24.20;94790.00;;;;7398078;19;20136;-79
2022/05/18 08:05:02;;;;;;;7.63;3.40;;;;;24.10;94791.00;;;;7397156;19;20614;-78
2022/05/18 08:07:30;;;;;;;4.13;3.10;;;;;24.60;94785.00;;;;7396489;19;20170;-78
2022/05/18 08:15:46;;;;;;;3.63;3.28;;;;;24.70;94791.00;;;;7394660;19;20133;-77
2022/05/18 08:18:15;;;;;;;4.20;3.20;;;;;25.00;94795.00;;;;7394334;19;20141;-79
2022/05/18 08:20:48;;;;;;;5.78;3.30;;;;;25.50;94798.00;;;;7394098;19;20148;-78
2022/05/18 08:23:22;;;;;;;6.63;3.55;;;;;25.30;94792.00;;;;7393330;19;20609;-80
2022/05/18 08:25:50;;;;;;;5.70;3.33;;;;;25.20;94785.00;;;;7394297;19;20139;-77
2022/05/18 08:28:21;;;;;;;7.45;3.47;;;;;25.00;94799.00;;;;7395690;19;20599;-77
2022/05/18 08:30:55;;;;;;;3.97;3.10;;;;;24.80;94803.00;;;;7395117;19;20137;-78
2022/05/18 08:33:24;;;;;;;4.57;2.88;;;;;24.60;94804.00;;;;7392966;19;20642;-78
2022/05/18 08:35:51;;;;;;;5.22;3.00;;;;;24.80;94808.00;;;;7392911;19;20133;-78
2022/05/18 08:38:26;;;;;;;6.85;3.80;;;;;25.20;94803.00;;;;7393049;19;20144;-77
2022/05/18 08:40:59;;;;;;;6.22;3.00;;;;;25.00;94805.00;;;;7393032;19;20163;-80
2022/05/18 08:43:35;;;;;;;7.60;3.28;;;;;25.20;94803.00;;;;7391877;19;20125;-77
2022/05/18 08:46:24;;;;;;;5.05;3.20;;;;;25.20;94799.00;;;;7388598;19;20176;-79
2022/05/18 08:49:27;;;;;;;3.47;3.03;;;;;25.60;94805.00;;;;7393902;19;20124;-77
2022/05/18 08:52:37;;;;;;;4.72;3.03;;;;;26.10;94812.00;;;;7394776;19;20630;-79
2022/05/18 08:55:29;;;;;;;6.07;3.33;;;;;26.20;94803.00;;;;7393335;19;20214;-79
2022/05/18 08:57:59;;;;;;;3.70;2.35;;;;;26.50;94796.00;;;;7392352;19;20140;-78
2022/05/18 09:00:38;;;;;;;4.13;2.60;;;;;26.50;94804.00;;;;7393914;19;20131;-78
2022/05/18 09:03:16;;;;;;;5.03;2.25;;;;;26.70;94810.00;;;;7393080;19;20591;-78
2022/05/18 09:06:11;;;;;;;5.00;2.40;;;;;26.60;94810.00;;;;7392303;19;20540;-79
2022/05/18 09:10:12;;;;;;;3.33;2.53;;;;;27.00;94803.00;;;;7392509;19;20140;-78
2022/05/18 09:11:47;;;;;;;3.05;2.53;;;;;27.30;94802.00;;;;7395419;19;20542;-80
2022/05/18 09:14:20;;;;;;;4.15;2.80;;;;;27.50;94799.00;;;;7394642;19;20564;-79
2022/05/18 09:17:06;;;;;;;4.45;2.70;;;;;27.40;94796.00;;;;7391603;19;20745;-78
2022/05/18 09:19:54;;;;;;;3.83;2.50;;;;;26.90;94793.00;;;;7391406;19;20492;-80
2022/05/18 09:22:55;;;;;;;4.05;2.50;;;;;27.30;94794.00;;;;7391264;19;20188;-80
2022/05/18 09:25:55;;;;;;;4.38;2.20;;;;;26.90;94798.00;;;;7391388;19;20145;-81
2022/05/18 09:28:49;;;;;;;3.85;1.90;;;;;27.20;94793.00;;;;7391304;19;20160;-80
2022/05/18 09:31:34;;;;;;;5.03;2.28;;;;;27.60;94794.00;;;;7392091;19;20144;-80
2022/05/18 09:34:36;;;;;;;2.40;1.67;;;;;28.00;94793.00;;;;7389557;19;20172;-77
2022/05/18 09:37:26;;;;;;;3.65;2.20;;;;;27.90;94789.00;;;;7391450;19;20619;-79
2022/05/18 09:40:12;;;;;;;4.25;2.15;;;;;27.60;94796.00;;;;7392726;19;20618;-80
2022/05/18 09:43:24;;;;;;;2.45;2.20;;;;;27.70;94798.00;;;;7391080;19;20619;-80
2022/05/18 09:46:04;;;;;;;4.57;1.98;;;;;27.40;94796.00;;;;7391560;19;20148;-79
2022/05/18 09:48:47;;;;;;;3.35;2.58;;;;;27.30;94789.00;;;;7393554;19;20136;-80
2022/05/18 09:51:22;;;;;;;3.78;2.20;;;;;27.40;94788.00;;;;7393031;19;20739;-80
2022/05/18 09:53:50;;;;;;;2.67;2.30;;;;;27.40;94787.00;;;;7391374;19;20147;-79
2022/05/18 09:56:32;;;;;;;5.45;2.17;;;;;27.60;94793.00;;;;7389953;19;20136;-79
2022/05/18 09:59:18;;;;;;;3.10;2.03;;;;;27.70;94783.00;;;;7391104;19;20121;-81
2022/05/18 10:07:32;;;;;;;2.00;1.80;;;;;28.40;94783.00;;;;7394592;19;20963;-80
2022/05/18 10:10:24;;;;;;;4.13;2.03;;;;;28.60;94777.00;;;;7397795;19;20136;-81
2022/05/18 10:12:55;;;;;;;3.78;2.08;;;;;28.70;94767.00;;;;7395038;19;20147;-83
2022/05/18 10:15:59;;;;;;;2.83;2.03;;;;;28.60;94782.00;;;;7390813;19;20625;-82
2022/05/18 10:18:34;;;;;;;3.38;2.13;;;;;27.80;94783.00;;;;7399099;19;20595;-80
2022/05/18 10:21:14;;;;;;;4.97;2.55;;;;;28.20;94778.00;;;;7403541;19;20148;-79
2022/05/18 10:23:57;;;;;;;3.55;2.50;;;;;28.40;94778.00;;;;7403655;19;20128;-78
2022/05/18 10:26:38;;;;;;;2.85;2.40;;;;;28.20;94779.00;;;;7405947;19;20141;-80
2022/05/18 10:29:24;;;;;;;3.80;2.47;;;;;27.90;94782.00;;;;7399536;19;20147;-79
2022/05/18 10:32:31;;;;;;;5.50;2.22;;;;;28.60;94777.00;;;;7402890;19;20129;-79
2022/05/18 10:35:01;;;;;;;4.05;2.33;;;;;28.50;94775.00;;;;7398540;19;20164;-80
2022/05/18 10:37:38;;;;;;;3.13;2.47;;;;;29.00;94780.00;;;;7403728;19;20128;-80
2022/05/18 10:40:13;;;;;;;3.97;2.25;;;;;28.70;94780.00;;;;7401536;19;20148;-79
2022/05/18 10:42:55;;;;;;;3.88;2.67;;;;;28.90;94768.00;;;;7399068;19;20129;-80
2022/05/18 10:45:35;;;;;;;4.47;2.20;;;;;29.40;94776.00;;;;7396805;19;20176;-80
2022/05/18 10:48:21;;;;;;;6.70;2.30;;;;;29.60;94788.00;;;;7399744;19;20496;-78
2022/05/18 10:50:57;;;;;;;3.20;2.40;;;;;29.80;94769.00;;;;7398816;19;20147;-77
2022/05/18 10:53:39;;;;;;;4.22;2.20;;;;;30.30;94780.00;;;;7397337;19;20211;-78
2022/05/18 10:56:09;;;;;;;3.10;2.10;;;;;30.40;94770.00;;;;7399298;19;20124;-77
2022/05/18 10:59:05;;;;;;;5.63;1.90;;;;;30.30;94771.00;;;;7397803;19;20617;-80
2022/05/18 11:01:58;;;;;;;3.85;2.10;;;;;30.50;94772.00;;;;7397430;19;20132;-79
2022/05/18 11:04:56;;;;;;;3.78;2.20;;;;;30.40;94777.00;;;;7396794;19;20216;-80
2022/05/18 11:07:27;;;;;;;2.78;2.00;;;;;29.80;94769.00;;;;7395970;19;20136;-78
2022/05/18 11:10:02;;;;;;;3.60;2.10;;;;;29.40;94751.00;;;;7397212;19;20144;-79
2022/05/18 11:13:05;;;;;;;5.53;2.28;;;;;29.40;94744.00;;;;7397836;19;20132;-79
2022/05/18 11:16:03;;;;;;;3.53;1.95;;;;;29.60;94756.00;;;;7394992;19;20144;-78
2022/05/18 11:19:10;;;;;;;3.13;2.38;;;;;29.90;94753.00;;;;7399330;19;20152;-78
2022/05/18 11:21:44;;;;;;;2.10;1.90;;;;;30.00;94751.00;;;;7403758;19;20136;-80
2022/05/18 11:24:24;;;;;;;2.72;2.20;;;;;30.40;94752.00;;;;7402412;19;20553;-80
2022/05/18 11:27:25;;;;;;;4.10;2.33;;;;;30.60;94748.00;;;;7404395;19;20150;-81
2022/05/18 11:29:56;;;;;;;2.63;1.90;;;;;30.70;94745.00;;;;7401869;19;20140;-80
2022/05/18 11:33:03;;;;;;;2.63;1.95;;;;;30.50;94751.00;;;;7401718;19;20140;-79
2022/05/18 11:35:55;;;;;;;3.97;2.13;;;;;30.30;94758.00;;;;7401466;19;20160;-78
2022/05/18 11:38:50;;;;;;;3.13;2.00;;;;;30.60;94745.00;;;;7405484;19;20125;-81
2022/05/18 11:41:32;;;;;;;3.25;2.25;;;;;31.20;94737.00;;;;7401988;19;20168;-80
2022/05/18 11:44:27;;;;;;;4.18;2.20;;;;;30.90;94737.00;;;;7403155;19;20136;-80
2022/05/18 11:47:05;;;;;;;3.22;2.33;;;;;30.50;94740.00;;;;7399540;19;20219;-80
2022/05/18 11:49:45;;;;;;;3.13;2.53;;;;;30.70;94734.00;;;;7399013;19;20174;-80
2022/05/18 11:52:32;;;;;;;3.78;2.25;;;;;31.00;94732.00;;;;7399768;19;20618;-80
2022/05/18 11:55:49;;;;;;;4.03;2.50;;;;;30.60;94730.00;;;;7398968;19;20148;-80
2022/05/18 11:59:02;;;;;;;2.70;2.05;;;;;31.10;94732.00;;;;7397946;19;20149;-82
2022/05/18 12:02:24;;;;;;;4.57;2.40;;;;;30.30;94731.00;;;;7395932;19;20152;-79
2022/05/18 12:05:22;;;;;;;2.67;2.10;;;;;30.30;94738.00;;;;7401588;19;20132;-79
2022/05/18 12:08:26;;;;;;;3.42;2.35;;;;;30.60;94730.00;;;;7400525;19;20148;-82
2022/05/18 12:11:00;;;;;;;3.88;2.40;;;;;30.70;94725.00;;;;7401105;19;20148;-84
2022/05/18 12:13:50;;;;;;;4.28;2.28;;;;;31.70;94720.00;;;;7398963;19;20185;-83
2022/05/18 12:16:24;;;;;;;2.50;2.30;;;;;31.10;94709.00;;;;7402418;19;20136;-83
2022/05/18 12:19:16;;;;;;;5.03;2.65;;;;;31.60;94718.00;;;;7401409;19;20170;-82
2022/05/18 12:21:50;;;;;;;3.95;2.60;;;;;31.30;94711.00;;;;7399502;19;20158;-81
2022/05/18 12:24:25;;;;;;;2.92;2.30;;;;;31.60;94715.00;;;;7399448;19;20136;-79
2022/05/18 12:26:55;;;;;;;5.38;2.20;;;;;31.00;94709.00;;;;7400738;19;20619;-78
2022/05/18 12:29:25;;;;;;;5.38;2.40;;;;;30.60;94704.00;;;;7397539;19;20152;-79
2022/05/18 12:32:09;;;;;;;3.10;2.20;;;;;30.70;94710.00;;;;7397915;19;20139;-81
2022/05/18 12:34:46;;;;;;;3.42;2.35;;;;;30.40;94719.00;;;;7398467;19;20144;-82
2022/05/18 12:37:46;;;;;;;3.85;2.40;;;;;30.20;94709.00;;;;7395684;19;20143;-83
2022/05/18 12:40:39;;;;;;;5.07;2.70;;;;;30.10;94717.00;;;;7396481;19;20144;-83
2022/05/18 12:43:44;;;;;;;2.95;2.63;;;;;30.30;94730.00;;;;7400074;19;20148;-80
2022/05/18 12:46:22;;;;;;;7.60;3.00;;;;;29.80;94722.00;;;;7398349;19;20235;-81
2022/05/18 12:49:05;;;;;;;7.32;2.40;;;;;29.30;94715.00;;;;7395653;19;20312;-83
2022/05/18 12:51:46;;;;;;;3.35;2.47;;;;;29.80;94718.00;;;;7398218;19;20191;-78
2022/05/18 12:54:38;;;;;;;2.75;2.50;;;;;30.10;94733.00;;;;7397479;19;20124;-81
2022/05/18 12:57:06;;;;;;;3.83;2.97;;;;;29.90;94731.00;;;;7394337;19;20129;-81
2022/05/18 13:00:07;;;;;;;3.05;2.60;;;;;29.30;94723.00;;;;7395206;19;20149;-79
2022/05/18 13:02:49;;;;;;;3.65;2.60;;;;;29.30;94728.00;;;;7395754;19;20235;-80
2022/05/18 13:05:27;;;;;;;6.78;2.55;;;;;29.80;94723.00;;;;7395607;19;20148;-79
2022/05/18 13:08:19;;;;;;;5.43;2.90;;;;;30.00;94718.00;;;;7395533;19;20160;-80
2022/05/18 13:11:16;;;;;;;3.70;2.88;;;;;30.10;94720.00;;;;7395648;19;20124;-79
2022/05/18 13:14:02;;;;;;;2.75;2.55;;;;;30.00;94720.00;;;;7395369;19;20137;-79
2022/05/18 13:16:39;;;;;;;2.50;2.30;;;;;30.40;94722.00;;;;7395390;19;20155;-81
2022/05/18 13:19:28;;;;;;;3.33;2.60;;;;;30.50;94711.00;;;;7397070;19;20120;-82
2022/05/18 13:22:17;;;;;;;3.25;2.47;;;;;30.20;94718.00;;;;7398818;19;20207;-80
2022/05/18 13:25:06;;;;;;;4.03;2.70;;;;;30.30;94719.00;;;;7396904;19;20148;-79
2022/05/18 13:27:52;;;;;;;5.72;2.60;;;;;30.30;94709.00;;;;7394929;19;20630;-80
2022/05/18 13:30:39;;;;;;;5.40;2.90;;;;;30.30;94714.00;;;;7395146;19;20136;-82
2022/05/18 13:33:57;;;;;;;5.20;2.60;;;;;30.50;94707.00;;;;7393714;19;20471;-79
2022/05/18 13:36:54;;;;;;;3.83;2.75;;;;;29.90;94712.00;;;;7392604;19;20482;-79
2022/05/18 13:39:37;;;;;;;3.83;2.60;;;;;30.00;94705.00;;;;7392632;19;20139;-80
2022/05/18 13:42:20;;;;;;;3.33;2.30;;;;;30.30;94705.00;;;;7396169;19;20645;-80